Lansdowne House Airport

CYLH | YLH

Lansdowne House , Ontario , Canada

Sunday, January 19th, 2020 | 14:51

Weather

CYLH 191900Z AUTO 26010G15KT 9SM CLR M15/M19 A3029 RMK SLP286

Charts

No Charts Available

Gates

No Gates Available

Runways

No Runways Available

Events

No events for this airport


New event